sensor_id;sensor_type;location;lat;lon;timestamp;pressure;altitude;pressure_sealevel;temperature;humidity
59487;BME280;45298;54.918;73.504;2023-03-19T00:01:22;100709.03;;;-6.37;72.65
59487;BME280;45298;54.918;73.504;2023-03-19T00:03:51;100745.28;;;-6.31;72.17
59487;BME280;45298;54.918;73.504;2023-03-19T00:06:20;100707.66;;;-6.65;71.95
59487;BME280;45298;54.918;73.504;2023-03-19T00:08:48;100771.66;;;-6.46;73.21
59487;BME280;45298;54.918;73.504;2023-03-19T00:11:17;100732.56;;;-6.66;73.48
59487;BME280;45298;54.918;73.504;2023-03-19T00:13:46;100785.25;;;-6.55;73.82
59487;BME280;45298;54.918;73.504;2023-03-19T00:16:15;100758.94;;;-6.81;73.58
59487;BME280;45298;54.918;73.504;2023-03-19T00:18:44;100778.59;;;-6.88;72.55
59487;BME280;45298;54.918;73.504;2023-03-19T00:21:13;100792.03;;;-7.01;71.71
59487;BME280;45298;54.918;73.504;2023-03-19T00:23:41;100790.78;;;-7.19;71.25
59487;BME280;45298;54.918;73.504;2023-03-19T00:26:10;100816.50;;;-7.22;71.00
59487;BME280;45298;54.918;73.504;2023-03-19T00:28:39;100759.00;;;-7.57;71.22
59487;BME280;45298;54.918;73.504;2023-03-19T00:31:10;100783.22;;;-7.49;71.89
59487;BME280;45298;54.918;73.504;2023-03-19T00:33:39;100813.09;;;-7.57;71.89
59487;BME280;45298;54.918;73.504;2023-03-19T00:36:10;100790.97;;;-7.84;71.79
59487;BME280;45298;54.918;73.504;2023-03-19T00:38:39;100822.44;;;-7.96;70.80
59487;BME280;45298;54.918;73.504;2023-03-19T00:41:08;100847.47;;;-7.91;71.78
59487;BME280;45298;54.918;73.504;2023-03-19T00:43:37;100803.13;;;-8.44;71.51
59487;BME280;45298;54.918;73.504;2023-03-19T00:46:06;100848.41;;;-8.21;71.55
59487;BME280;45298;54.918;73.504;2023-03-19T00:48:35;100821.13;;;-8.46;72.01
59487;BME280;45298;54.918;73.504;2023-03-19T00:51:06;100864.56;;;-8.25;71.97
59487;BME280;45298;54.918;73.504;2023-03-19T00:53:37;100851.84;;;-8.52;71.50
59487;BME280;45298;54.918;73.504;2023-03-19T00:56:08;100856.03;;;-8.56;72.03
59487;BME280;45298;54.918;73.504;2023-03-19T00:58:37;100874.03;;;-8.56;72.23
59487;BME280;45298;54.918;73.504;2023-03-19T01:01:09;100858.88;;;-8.75;72.45
59487;BME280;45298;54.918;73.504;2023-03-19T01:03:39;100886.91;;;-8.56;72.72
59487;BME280;45298;54.918;73.504;2023-03-19T01:06:08;100860.63;;;-8.74;72.50
59487;BME280;45298;54.918;73.504;2023-03-19T01:08:37;100902.50;;;-8.50;73.17
59487;BME280;45298;54.918;73.504;2023-03-19T01:11:11;100892.56;;;-8.66;72.43
59487;BME280;45298;54.918;73.504;2023-03-19T01:13:41;100936.13;;;-8.42;72.90
59487;BME280;45298;54.918;73.504;2023-03-19T01:16:10;100891.72;;;-8.67;73.08
59487;BME280;45298;54.918;73.504;2023-03-19T01:18:39;100922.91;;;-8.56;72.69
59487;BME280;45298;54.918;73.504;2023-03-19T01:21:09;100926.13;;;-8.63;73.36
59487;BME280;45298;54.918;73.504;2023-03-19T01:23:44;100928.78;;;-8.60;73.22
59487;BME280;45298;54.918;73.504;2023-03-19T01:26:13;100930.13;;;-8.71;73.19
59487;BME280;45298;54.918;73.504;2023-03-19T01:28:43;100961.16;;;-8.67;73.77
59487;BME280;45298;54.918;73.504;2023-03-19T01:31:12;100952.53;;;-8.69;73.09
59487;BME280;45298;54.918;73.504;2023-03-19T01:34:00;100973.09;;;-8.69;72.71
59487;BME280;45298;54.918;73.504;2023-03-19T01:36:38;100976.09;;;-8.82;73.08
59487;BME280;45298;54.918;73.504;2023-03-19T01:39:07;100990.44;;;-8.89;73.02
59487;BME280;45298;54.918;73.504;2023-03-19T01:41:38;100960.56;;;-9.13;73.12
59487;BME280;45298;54.918;73.504;2023-03-19T01:44:33;100993.22;;;-9.08;72.83
59487;BME280;45298;54.918;73.504;2023-03-19T01:50:43;101022.44;;;-9.06;72.52
59487;BME280;45298;54.918;73.504;2023-03-19T01:53:38;100995.81;;;-9.34;72.06
59487;BME280;45298;54.918;73.504;2023-03-19T01:56:22;101014.00;;;-9.28;71.90
59487;BME280;45298;54.918;73.504;2023-03-19T02:04:30;101013.97;;;-9.54;71.70
59487;BME280;45298;54.918;73.504;2023-03-19T02:07:01;101064.78;;;-9.21;72.14
59487;BME280;45298;54.918;73.504;2023-03-19T02:09:31;101065.75;;;-9.17;71.96
59487;BME280;45298;54.918;73.504;2023-03-19T02:12:00;101015.72;;;-9.53;71.64
59487;BME280;45298;54.918;73.504;2023-03-19T02:14:29;100997.78;;;-9.76;71.75
59487;BME280;45298;54.918;73.504;2023-03-19T02:16:58;101066.94;;;-9.33;72.27
59487;BME280;45298;54.918;73.504;2023-03-19T02:22:26;101009.16;;;-8.38;69.46
59487;BME280;45298;54.918;73.504;2023-03-19T02:25:06;101111.06;;;-6.99;66.09
59487;BME280;45298;54.918;73.504;2023-03-19T02:27:38;101135.59;;;-6.12;64.88
59487;BME280;45298;54.918;73.504;2023-03-19T02:30:22;101144.16;;;-5.75;62.21
59487;BME280;45298;54.918;73.504;2023-03-19T02:32:52;101108.88;;;-5.73;61.46
59487;BME280;45298;54.918;73.504;2023-03-19T02:35:21;101132.38;;;-5.21;61.04
59487;BME280;45298;54.918;73.504;2023-03-19T02:37:50;101146.25;;;-5.17;59.81
59487;BME280;45298;54.918;73.504;2023-03-19T02:40:22;101127.56;;;-5.85;59.86
59487;BME280;45298;54.918;73.504;2023-03-19T02:42:53;101152.00;;;-6.10;60.01
59487;BME280;45298;54.918;73.504;2023-03-19T02:45:27;101189.50;;;-6.25;59.44
59487;BME280;45298;54.918;73.504;2023-03-19T02:47:58;101106.44;;;-7.41;60.28
59487;BME280;45298;54.918;73.504;2023-03-19T02:50:27;101159.19;;;-7.59;60.83
59487;BME280;45298;54.918;73.504;2023-03-19T02:52:56;101197.28;;;-7.48;60.54
59487;BME280;45298;54.918;73.504;2023-03-19T02:55:25;101201.34;;;-7.28;60.45
59487;BME280;45298;54.918;73.504;2023-03-19T02:57:54;101171.00;;;-7.06;58.58
59487;BME280;45298;54.918;73.504;2023-03-19T03:00:23;101226.63;;;-6.85;58.44
59487;BME280;45298;54.918;73.504;2023-03-19T03:02:54;101207.19;;;-7.33;57.95
59487;BME280;45298;54.918;73.504;2023-03-19T03:05:24;101159.81;;;-7.95;59.78
59487;BME280;45298;54.918;73.504;2023-03-19T03:07:53;101224.59;;;-8.08;59.94
59487;BME280;45298;54.918;73.504;2023-03-19T03:10:22;101268.34;;;-8.08;60.72
59487;BME280;45298;54.918;73.504;2023-03-19T03:12:51;101244.34;;;-8.33;60.47
59487;BME280;45298;54.918;73.504;2023-03-19T03:15:20;101253.50;;;-8.67;58.63
59487;BME280;45298;54.918;73.504;2023-03-19T03:17:49;101238.19;;;-9.34;58.80
59487;BME280;45298;54.918;73.504;2023-03-19T03:20:18;101222.88;;;-9.53;59.31
59487;BME280;45298;54.918;73.504;2023-03-19T03:22:47;101267.44;;;-9.53;59.98
59487;BME280;45298;54.918;73.504;2023-03-19T03:25:16;101257.97;;;-9.54;59.64
59487;BME280;45298;54.918;73.504;2023-03-19T03:27:46;101281.94;;;-9.53;60.02
59487;BME280;45298;54.918;73.504;2023-03-19T03:30:16;101304.38;;;-9.71;59.84
59487;BME280;45298;54.918;73.504;2023-03-19T03:32:45;101290.09;;;-9.85;59.15
59487;BME280;45298;54.918;73.504;2023-03-19T03:35:14;101324.41;;;-9.83;59.61
59487;BME280;45298;54.918;73.504;2023-03-19T03:37:50;101351.34;;;-9.73;59.31
59487;BME280;45298;54.918;73.504;2023-03-19T03:40:19;101305.81;;;-9.98;59.73
59487;BME280;45298;54.918;73.504;2023-03-19T03:42:49;101326.81;;;-9.88;59.47
59487;BME280;45298;54.918;73.504;2023-03-19T03:45:18;101327.56;;;-9.69;58.73
59487;BME280;45298;54.918;73.504;2023-03-19T03:47:47;101324.25;;;-9.66;59.22
59487;BME280;45298;54.918;73.504;2023-03-19T03:50:18;101340.66;;;-9.42;58.85
59487;BME280;45298;54.918;73.504;2023-03-19T03:52:49;101385.94;;;-9.01;58.22
59487;BME280;45298;54.918;73.504;2023-03-19T03:55:17;101387.53;;;-9.05;57.76
59487;BME280;45298;54.918;73.504;2023-03-19T03:57:46;101351.09;;;-9.16;57.40
59487;BME280;45298;54.918;73.504;2023-03-19T04:00:15;101373.38;;;-8.93;57.00
59487;BME280;45298;54.918;73.504;2023-03-19T04:02:44;101382.50;;;-8.79;57.07
59487;BME280;45298;54.918;73.504;2023-03-19T04:05:15;101367.28;;;-8.74;56.55
59487;BME280;45298;54.918;73.504;2023-03-19T04:07:45;101331.25;;;-8.97;56.05
59487;BME280;45298;54.918;73.504;2023-03-19T04:10:14;101366.22;;;-8.79;55.93
59487;BME280;45298;54.918;73.504;2023-03-19T04:12:43;101311.97;;;-9.08;56.01
59487;BME280;45298;54.918;73.504;2023-03-19T04:15:13;101402.91;;;-8.61;55.20
59487;BME280;45298;54.918;73.504;2023-03-19T04:17:44;101426.38;;;-8.53;54.90
59487;BME280;45298;54.918;73.504;2023-03-19T04:20:14;101416.06;;;-8.53;55.39
59487;BME280;45298;54.918;73.504;2023-03-19T04:22:45;101432.28;;;-8.56;54.46
59487;BME280;45298;54.918;73.504;2023-03-19T04:25:15;101446.78;;;-8.33;54.87
59487;BME280;45298;54.918;73.504;2023-03-19T04:27:45;101464.44;;;-8.20;55.05
59487;BME280;45298;54.918;73.504;2023-03-19T04:30:14;101467.34;;;-8.35;54.86
59487;BME280;45298;54.918;73.504;2023-03-19T04:32:43;101435.28;;;-8.66;54.04
59487;BME280;45298;54.918;73.504;2023-03-19T04:35:12;101426.69;;;-8.89;54.04
59487;BME280;45298;54.918;73.504;2023-03-19T04:37:40;101434.31;;;-8.91;54.14
59487;BME280;45298;54.918;73.504;2023-03-19T04:40:11;101452.75;;;-8.80;54.17
59487;BME280;45298;54.918;73.504;2023-03-19T04:42:40;101463.28;;;-8.74;54.75
59487;BME280;45298;54.918;73.504;2023-03-19T04:45:21;101474.47;;;-8.51;54.34
59487;BME280;45298;54.918;73.504;2023-03-19T04:47:50;101487.94;;;-8.58;52.93
59487;BME280;45298;54.918;73.504;2023-03-19T04:50:22;101480.09;;;-8.82;53.45
59487;BME280;45298;54.918;73.504;2023-03-19T04:52:52;101495.34;;;-8.66;53.43
59487;BME280;45298;54.918;73.504;2023-03-19T04:55:23;101472.78;;;-8.94;52.26
59487;BME280;45298;54.918;73.504;2023-03-19T04:58:03;101487.00;;;-9.02;52.29
59487;BME280;45298;54.918;73.504;2023-03-19T05:00:34;101489.09;;;-9.15;52.45
59487;BME280;45298;54.918;73.504;2023-03-19T05:03:05;101511.22;;;-8.97;52.15
59487;BME280;45298;54.918;73.504;2023-03-19T05:05:35;101510.97;;;-8.82;52.31
59487;BME280;45298;54.918;73.504;2023-03-19T05:08:07;101517.88;;;-8.60;52.63
59487;BME280;45298;54.918;73.504;2023-03-19T05:10:37;101521.50;;;-8.55;51.69
59487;BME280;45298;54.918;73.504;2023-03-19T05:13:06;101558.09;;;-8.39;51.23
59487;BME280;45298;54.918;73.504;2023-03-19T05:15:41;101502.13;;;-8.68;49.01
59487;BME280;45298;54.918;73.504;2023-03-19T05:18:12;101458.03;;;-8.77;49.97
59487;BME280;45298;54.918;73.504;2023-03-19T05:20:44;101527.88;;;-8.22;49.39
59487;BME280;45298;54.918;73.504;2023-03-19T05:23:21;101533.63;;;-8.07;48.64
59487;BME280;45298;54.918;73.504;2023-03-19T05:26:01;101535.06;;;-7.91;48.23
59487;BME280;45298;54.918;73.504;2023-03-19T05:28:53;101458.59;;;-8.16;47.87
59487;BME280;45298;54.918;73.504;2023-03-19T05:31:31;101582.22;;;-7.22;47.70
59487;BME280;45298;54.918;73.504;2023-03-19T05:34:00;101578.78;;;-7.22;46.36
59487;BME280;45298;54.918;73.504;2023-03-19T05:36:31;101572.25;;;-7.13;46.68
59487;BME280;45298;54.918;73.504;2023-03-19T05:39:08;101570.34;;;-6.92;45.83
59487;BME280;45298;54.918;73.504;2023-03-19T05:41:42;101500.97;;;-7.35;44.33
59487;BME280;45298;54.918;73.504;2023-03-19T05:44:15;101568.44;;;-6.98;45.30
59487;BME280;45298;54.918;73.504;2023-03-19T05:47:02;101546.31;;;-6.91;45.00
59487;BME280;45298;54.918;73.504;2023-03-19T05:49:34;101561.06;;;-6.61;44.73
59487;BME280;45298;54.918;73.504;2023-03-19T05:52:03;101583.13;;;-6.18;44.80
59487;BME280;45298;54.918;73.504;2023-03-19T05:54:33;101584.59;;;-5.96;44.67
59487;BME280;45298;54.918;73.504;2023-03-19T05:57:20;101516.66;;;-6.51;42.37
59487;BME280;45298;54.918;73.504;2023-03-19T06:00:10;101510.84;;;-6.15;43.49
59487;BME280;45298;54.918;73.504;2023-03-19T06:02:39;101579.53;;;-5.33;44.55
59487;BME280;45298;54.918;73.504;2023-03-19T06:05:27;101589.94;;;-4.98;44.61
59487;BME280;45298;54.918;73.504;2023-03-19T06:08:02;101632.28;;;-4.64;43.97
59487;BME280;45298;54.918;73.504;2023-03-19T06:10:58;101625.81;;;-4.46;43.82
59487;BME280;45298;54.918;73.504;2023-03-19T06:13:27;101628.22;;;-4.19;44.07
59487;BME280;45298;54.918;73.504;2023-03-19T06:16:04;101620.09;;;-4.68;42.80
59487;BME280;45298;54.918;73.504;2023-03-19T06:18:38;101623.25;;;-4.45;43.49
59487;BME280;45298;54.918;73.504;2023-03-19T06:21:10;101614.72;;;-4.42;43.92
59487;BME280;45298;54.918;73.504;2023-03-19T06:23:39;101554.72;;;-4.59;43.45
59487;BME280;45298;54.918;73.504;2023-03-19T06:26:11;101616.19;;;-4.15;42.72
59487;BME280;45298;54.918;73.504;2023-03-19T06:28:53;101633.66;;;-4.08;42.35
59487;BME280;45298;54.918;73.504;2023-03-19T06:31:22;101665.28;;;-3.86;41.55
59487;BME280;45298;54.918;73.504;2023-03-19T06:33:54;101630.50;;;-3.95;41.93
59487;BME280;45298;54.918;73.504;2023-03-19T06:36:29;101660.78;;;-3.93;41.40
59487;BME280;45298;54.918;73.504;2023-03-19T06:38:58;101658.88;;;-4.36;40.05
59487;BME280;45298;54.918;73.504;2023-03-19T06:41:30;101657.56;;;-4.18;41.31
59487;BME280;45298;54.918;73.504;2023-03-19T06:44:20;101656.94;;;-4.10;41.11
59487;BME280;45298;54.918;73.504;2023-03-19T06:46:49;101649.13;;;-4.11;40.67
59487;BME280;45298;54.918;73.504;2023-03-19T06:49:18;101700.78;;;-3.82;40.25
59487;BME280;45298;54.918;73.504;2023-03-19T06:51:47;101689.44;;;-3.87;40.23
59487;BME280;45298;54.918;73.504;2023-03-19T06:54:15;101687.88;;;-3.81;39.93
59487;BME280;45298;54.918;73.504;2023-03-19T06:56:44;101711.31;;;-3.76;40.09
59487;BME280;45298;54.918;73.504;2023-03-19T06:59:14;101687.78;;;-3.84;39.79
59487;BME280;45298;54.918;73.504;2023-03-19T07:01:43;101688.03;;;-3.73;39.70
59487;BME280;45298;54.918;73.504;2023-03-19T07:04:12;101715.25;;;-3.55;39.90
59487;BME280;45298;54.918;73.504;2023-03-19T07:06:40;101722.88;;;-3.61;40.58
59487;BME280;45298;54.918;73.504;2023-03-19T07:09:09;101708.31;;;-3.56;39.84
59487;BME280;45298;54.918;73.504;2023-03-19T07:11:38;101680.38;;;-3.68;40.11
59487;BME280;45298;54.918;73.504;2023-03-19T07:14:07;101723.38;;;-3.40;39.87
59487;BME280;45298;54.918;73.504;2023-03-19T07:16:36;101698.16;;;-3.47;40.01
59487;BME280;45298;54.918;73.504;2023-03-19T07:19:05;101695.53;;;-3.85;39.28
59487;BME280;45298;54.918;73.504;2023-03-19T07:21:34;101724.06;;;-3.85;39.42
59487;BME280;45298;54.918;73.504;2023-03-19T07:24:03;101708.59;;;-3.81;39.75
59487;BME280;45298;54.918;73.504;2023-03-19T07:26:32;101718.59;;;-3.59;40.33
59487;BME280;45298;54.918;73.504;2023-03-19T07:29:01;101716.03;;;-3.20;39.92
59487;BME280;45298;54.918;73.504;2023-03-19T07:31:30;101750.47;;;-2.87;39.73
59487;BME280;45298;54.918;73.504;2023-03-19T07:33:59;101672.56;;;-3.30;39.23
59487;BME280;45298;54.918;73.504;2023-03-19T07:36:28;101736.44;;;-2.97;39.47
59487;BME280;45298;54.918;73.504;2023-03-19T07:38:57;101735.84;;;-2.82;39.52
59487;BME280;45298;54.918;73.504;2023-03-19T07:41:25;101672.31;;;-3.01;39.16
59487;BME280;45298;54.918;73.504;2023-03-19T07:43:54;101765.41;;;-2.32;39.54
59487;BME280;45298;54.918;73.504;2023-03-19T07:46:23;101766.72;;;-2.08;39.46
59487;BME280;45298;54.918;73.504;2023-03-19T07:48:52;101740.66;;;-2.11;39.86
59487;BME280;45298;54.918;73.504;2023-03-19T07:51:21;101759.31;;;-2.34;38.59
59487;BME280;45298;54.918;73.504;2023-03-19T07:53:50;101739.06;;;-2.51;38.44
59487;BME280;45298;54.918;73.504;2023-03-19T07:56:19;101748.13;;;-2.75;38.09
59487;BME280;45298;54.918;73.504;2023-03-19T07:58:48;101754.44;;;-3.05;38.41
59487;BME280;45298;54.918;73.504;2023-03-19T08:01:17;101754.28;;;-3.11;38.88
59487;BME280;45298;54.918;73.504;2023-03-19T08:03:46;101751.47;;;-3.20;38.77
59487;BME280;45298;54.918;73.504;2023-03-19T08:06:15;101761.69;;;-3.29;39.03
59487;BME280;45298;54.918;73.504;2023-03-19T08:08:45;101778.84;;;-2.96;39.24
59487;BME280;45298;54.918;73.504;2023-03-19T08:11:14;101759.41;;;-3.15;38.12
59487;BME280;45298;54.918;73.504;2023-03-19T08:13:43;101726.97;;;-3.33;38.50
59487;BME280;45298;54.918;73.504;2023-03-19T08:16:12;101766.38;;;-3.13;38.65
59487;BME280;45298;54.918;73.504;2023-03-19T08:18:41;101757.66;;;-3.15;38.63
59487;BME280;45298;54.918;73.504;2023-03-19T08:21:10;101776.59;;;-2.79;39.10
59487;BME280;45298;54.918;73.504;2023-03-19T08:23:39;101749.78;;;-2.78;39.07
59487;BME280;45298;54.918;73.504;2023-03-19T08:26:08;101791.66;;;-2.63;38.40
59487;BME280;45298;54.918;73.504;2023-03-19T08:28:37;101765.59;;;-2.67;38.09
59487;BME280;45298;54.918;73.504;2023-03-19T08:31:10;101713.22;;;-3.30;37.95
59487;BME280;45298;54.918;73.504;2023-03-19T08:33:40;101785.00;;;-2.91;38.30
59487;BME280;45298;54.918;73.504;2023-03-19T08:36:11;101753.06;;;-3.28;37.79
59487;BME280;45298;54.918;73.504;2023-03-19T08:38:41;101748.13;;;-3.16;38.17
59487;BME280;45298;54.918;73.504;2023-03-19T08:41:10;101775.41;;;-2.95;37.83
59487;BME280;45298;54.918;73.504;2023-03-19T08:43:41;101794.25;;;-3.41;37.47
59487;BME280;45298;54.918;73.504;2023-03-19T08:46:10;101790.69;;;-3.46;38.14
59487;BME280;45298;54.918;73.504;2023-03-19T08:48:39;101808.13;;;-3.40;38.22
59487;BME280;45298;54.918;73.504;2023-03-19T08:51:08;101785.56;;;-3.43;38.25
59487;BME280;45298;54.918;73.504;2023-03-19T08:53:37;101819.00;;;-3.55;37.09
59487;BME280;45298;54.918;73.504;2023-03-19T08:56:07;101818.97;;;-3.57;38.04
59487;BME280;45298;54.918;73.504;2023-03-19T08:58:36;101794.19;;;-3.79;38.13
59487;BME280;45298;54.918;73.504;2023-03-19T09:01:10;101735.88;;;-3.97;38.49
59487;BME280;45298;54.918;73.504;2023-03-19T09:03:40;101830.75;;;-3.35;38.26
59487;BME280;45298;54.918;73.504;2023-03-19T09:06:10;101811.66;;;-3.37;38.20
59487;BME280;45298;54.918;73.504;2023-03-19T09:08:39;101809.25;;;-3.66;38.33
59487;BME280;45298;54.918;73.504;2023-03-19T09:11:12;101810.72;;;-3.75;38.52
59487;BME280;45298;54.918;73.504;2023-03-19T09:13:41;101812.13;;;-3.88;37.92
59487;BME280;45298;54.918;73.504;2023-03-19T09:16:10;101834.72;;;-3.84;38.62
59487;BME280;45298;54.918;73.504;2023-03-19T09:18:39;101817.97;;;-3.96;38.60
59487;BME280;45298;54.918;73.504;2023-03-19T09:21:10;101824.16;;;-3.90;38.30
59487;BME280;45298;54.918;73.504;2023-03-19T09:23:39;101837.34;;;-3.81;38.79
59487;BME280;45298;54.918;73.504;2023-03-19T09:26:08;101740.31;;;-4.58;38.53
59487;BME280;45298;54.918;73.504;2023-03-19T09:28:37;101815.44;;;-4.26;38.21
59487;BME280;45298;54.918;73.504;2023-03-19T09:31:08;101813.94;;;-4.18;38.62
59487;BME280;45298;54.918;73.504;2023-03-19T09:33:38;101814.97;;;-4.11;39.11
59487;BME280;45298;54.918;73.504;2023-03-19T09:36:07;101818.16;;;-4.21;38.55
59487;BME280;45298;54.918;73.504;2023-03-19T09:38:36;101831.88;;;-4.26;39.32
59487;BME280;45298;54.918;73.504;2023-03-19T09:46:45;101856.75;;;-4.32;38.71
59487;BME280;45298;54.918;73.504;2023-03-19T09:51:52;101873.56;;;-4.16;39.93
59487;BME280;45298;54.918;73.504;2023-03-19T09:54:31;101855.84;;;-4.33;39.22
59487;BME280;45298;54.918;73.504;2023-03-19T09:57:02;101840.06;;;-4.42;38.95
59487;BME280;45298;54.918;73.504;2023-03-19T09:59:31;101856.84;;;-4.28;39.59
59487;BME280;45298;54.918;73.504;2023-03-19T10:02:23;101859.25;;;-4.35;38.36
59487;BME280;45298;54.918;73.504;2023-03-19T10:13:37;101891.28;;;-4.32;38.74
59487;BME280;45298;54.918;73.504;2023-03-19T10:16:18;101858.91;;;-4.46;39.89
59487;BME280;45298;54.918;73.504;2023-03-19T10:18:53;101880.00;;;-4.34;40.13
59487;BME280;45298;54.918;73.504;2023-03-19T10:21:52;101895.81;;;-4.25;39.79
59487;BME280;45298;54.918;73.504;2023-03-19T10:27:09;101863.72;;;-4.59;39.82
59487;BME280;45298;54.918;73.504;2023-03-19T10:29:40;101872.72;;;-4.47;40.23
59487;BME280;45298;54.918;73.504;2023-03-19T10:32:20;101889.41;;;-4.37;40.31
59487;BME280;45298;54.918;73.504;2023-03-19T10:34:57;101896.38;;;-4.35;39.83
59487;BME280;45298;54.918;73.504;2023-03-19T10:37:29;101881.41;;;-4.45;39.81
59487;BME280;45298;54.918;73.504;2023-03-19T10:39:59;101768.78;;;-5.18;39.52
59487;BME280;45298;54.918;73.504;2023-03-19T10:43:11;101860.31;;;-4.58;39.93
59487;BME280;45298;54.918;73.504;2023-03-19T10:45:44;101871.66;;;-4.54;40.51
59487;BME280;45298;54.918;73.504;2023-03-19T10:48:17;101869.94;;;-4.53;40.50
59487;BME280;45298;54.918;73.504;2023-03-19T10:56:01;101917.91;;;-4.36;41.24
59487;BME280;45298;54.918;73.504;2023-03-19T10:58:33;101803.44;;;-5.12;41.24
59487;BME280;45298;54.918;73.504;2023-03-19T11:01:11;101882.78;;;-4.57;41.50
59487;BME280;45298;54.918;73.504;2023-03-19T11:03:50;101907.41;;;-4.42;41.31
59487;BME280;45298;54.918;73.504;2023-03-19T11:06:35;101917.66;;;-4.45;41.94
59487;BME280;45298;54.918;73.504;2023-03-19T11:19:27;101888.31;;;-5.02;41.54
59487;BME280;45298;54.918;73.504;2023-03-19T11:24:41;101927.56;;;-4.88;41.61
59487;BME280;45298;54.918;73.504;2023-03-19T11:27:10;101899.19;;;-5.12;41.88
59487;BME280;45298;54.918;73.504;2023-03-19T11:29:41;101926.44;;;-4.96;42.35
59487;BME280;45298;54.918;73.504;2023-03-19T11:38:00;101922.19;;;-5.22;43.38
59487;BME280;45298;54.918;73.504;2023-03-19T11:40:51;101935.19;;;-5.19;42.88
59487;BME280;45298;54.918;73.504;2023-03-19T11:49:07;101944.78;;;-5.42;42.36
59487;BME280;45298;54.918;73.504;2023-03-19T11:57:11;101827.44;;;-6.23;42.17
59487;BME280;45298;54.918;73.504;2023-03-19T11:59:56;101924.69;;;-5.75;43.87
59487;BME280;45298;54.918;73.504;2023-03-19T12:05:59;101938.97;;;-5.85;42.30
59487;BME280;45298;54.918;73.504;2023-03-19T12:11:50;101905.31;;;-6.12;43.71
59487;BME280;45298;54.918;73.504;2023-03-19T12:20:14;101833.19;;;-6.77;43.32
59487;BME280;45298;54.918;73.504;2023-03-19T12:28:24;101942.97;;;-6.42;44.40
59487;BME280;45298;54.918;73.504;2023-03-19T12:31:07;101928.53;;;-6.59;44.26
59487;BME280;45298;54.918;73.504;2023-03-19T12:34:19;101908.84;;;-6.78;44.69
59487;BME280;45298;54.918;73.504;2023-03-19T12:37:06;101906.91;;;-6.84;45.26
59487;BME280;45298;54.918;73.504;2023-03-19T12:39:39;101935.47;;;-6.79;44.88
59487;BME280;45298;54.918;73.504;2023-03-19T12:42:11;101908.94;;;-6.98;44.70
59487;BME280;45298;54.918;73.504;2023-03-19T12:44:49;101952.22;;;-6.91;45.66
59487;BME280;45298;54.918;73.504;2023-03-19T12:47:28;101933.44;;;-7.09;45.54
59487;BME280;45298;54.918;73.504;2023-03-19T12:50:04;101930.97;;;-7.28;46.24
59487;BME280;45298;54.918;73.504;2023-03-19T12:52:51;101931.28;;;-7.41;46.12
59487;BME280;45298;54.918;73.504;2023-03-19T12:55:42;101969.50;;;-7.31;45.25
59487;BME280;45298;54.918;73.504;2023-03-19T12:58:23;101975.91;;;-7.42;46.80
59487;BME280;45298;54.918;73.504;2023-03-19T13:01:05;101959.38;;;-7.67;46.21
59487;BME280;45298;54.918;73.504;2023-03-19T13:04:22;101984.66;;;-7.58;46.67
59487;BME280;45298;54.918;73.504;2023-03-19T13:07:02;101992.69;;;-7.71;46.96
59487;BME280;45298;54.918;73.504;2023-03-19T13:09:38;102001.13;;;-7.74;47.87
59487;BME280;45298;54.918;73.504;2023-03-19T13:12:24;101941.59;;;-8.20;47.60
59487;BME280;45298;54.918;73.504;2023-03-19T13:15:02;101984.81;;;-8.12;48.16
59487;BME280;45298;54.918;73.504;2023-03-19T13:20:41;102015.00;;;-8.10;47.93
59487;BME280;45298;54.918;73.504;2023-03-19T13:23:24;102019.72;;;-8.19;48.55
59487;BME280;45298;54.918;73.504;2023-03-19T13:25:56;101998.25;;;-8.38;48.67
59487;BME280;45298;54.918;73.504;2023-03-19T13:28:32;102021.63;;;-8.33;49.15
59487;BME280;45298;54.918;73.504;2023-03-19T13:31:07;102028.44;;;-8.35;48.76
59487;BME280;45298;54.918;73.504;2023-03-19T13:37:03;102029.47;;;-8.50;49.34
59487;BME280;45298;54.918;73.504;2023-03-19T13:39:35;101997.44;;;-8.74;49.58
59487;BME280;45298;54.918;73.504;2023-03-19T13:42:43;102030.50;;;-8.64;49.82
59487;BME280;45298;54.918;73.504;2023-03-19T13:47:50;102010.94;;;-8.78;49.64
59487;BME280;45298;54.918;73.504;2023-03-19T13:50:23;101932.13;;;-9.31;49.29
59487;BME280;45298;54.918;73.504;2023-03-19T13:53:15;102007.63;;;-8.94;49.46
59487;BME280;45298;54.918;73.504;2023-03-19T13:55:51;102016.38;;;-8.90;49.94
59487;BME280;45298;54.918;73.504;2023-03-19T13:58:23;102045.19;;;-8.79;50.00
59487;BME280;45298;54.918;73.504;2023-03-19T14:01:35;102052.53;;;-8.87;50.10
59487;BME280;45298;54.918;73.504;2023-03-19T14:06:46;102023.59;;;-9.18;50.51
59487;BME280;45298;54.918;73.504;2023-03-19T14:36:24;102034.53;;;-9.38;50.71
59487;BME280;45298;54.918;73.504;2023-03-19T14:39:02;102035.00;;;-9.46;51.48
59487;BME280;45298;54.918;73.504;2023-03-19T14:41:41;101999.63;;;-9.68;51.07
59487;BME280;45298;54.918;73.504;2023-03-19T14:55:35;102029.25;;;-9.75;51.44
59487;BME280;45298;54.918;73.504;2023-03-19T14:58:04;102054.25;;;-9.71;51.32
59487;BME280;45298;54.918;73.504;2023-03-19T15:00:43;102058.47;;;-9.73;52.23
59487;BME280;45298;54.918;73.504;2023-03-19T15:03:30;102060.13;;;-9.73;51.92
59487;BME280;45298;54.918;73.504;2023-03-19T15:06:04;102019.50;;;-9.97;51.91
59487;BME280;45298;54.918;73.504;2023-03-19T15:08:37;102071.53;;;-9.68;51.78
59487;BME280;45298;54.918;73.504;2023-03-19T15:19:26;102077.69;;;-9.81;52.44
59487;BME280;45298;54.918;73.504;2023-03-19T15:25:05;102034.47;;;-10.05;52.13
59487;BME280;45298;54.918;73.504;2023-03-19T15:27:35;102075.59;;;-9.88;52.70
59487;BME280;45298;54.918;73.504;2023-03-19T15:30:24;102068.44;;;-9.94;52.24
59487;BME280;45298;54.918;73.504;2023-03-19T15:32:56;102048.75;;;-10.10;52.18
59487;BME280;45298;54.918;73.504;2023-03-19T15:35:38;102051.31;;;-10.10;52.12
59487;BME280;45298;54.918;73.504;2023-03-19T15:38:12;102038.53;;;-10.25;52.58